Minier, IL (61759)

2:02 AM CDT on March 29, 2015 (GMT -0500)
Uptown Stanford | | Change Station
CLOSE
Current Station
Personal Weather Station
Location: Stanford, IL
Elevation: 699 ft
Nearby Weather Stations

Elev 699 ft 40.43 °N, 89.22 °W | Updated 12 minutes ago

Clear
Clear
28.8 °F
Feels Like 29 °F
N
1.7
Wind Variable Wind from ENE

Today
High -- | Low -- °F
--% Chance of Precip.
Yesterday
High -- | Low -- °F
Precip. -- in
6:46 AM 7:18 PM
Waxing Gibbous, 69% visible
Pressure 30.27 in
Visibility 10.0 miles
Clouds Clear
Windchill 29 °F
Dew Point 22 °F
Humidity 76%
Rainfall 0.00 in
Snow Depth Not available.
UV 0 out of 12
Pollen 4.50 out of 12
Air Quality Not available.
Flu Activity Not available.
METAR KAAA 290655Z AUTO 16005KT 10SM CLR M01/M05 A3027 RMK AO2 T10101050

More Conditions Fewer Conditions

Pressure 30.27 in
Visibility 10.0 miles
Clouds Clear
Windchill 29 °F
Dew Point 22 °F
Humidity 76%
Rainfall 0.00 in
Snow Depth Not available.
UV 0 out of 12
Pollen 4.50 out of 12
Air Quality Not available.
Flu Activity Not available.
METAR KAAA 290655Z AUTO 16005KT 10SM CLR M01/M05 A3027 RMK AO2 T10101050

More Conditions Fewer Conditions

10-Day Weather Forecast

Almanac

Astronomy

Mar. 29, 2015 Rise Set
Actual Time
Civil Twilight
Nautical Twilight
Astronomical Twilight
Moon
Length of Visible Light
Length of Day
Tomorrow will be .
, % of the Moon is Illuminated

Today's Extremes

State Highs State Lows

Community

WunderPhotos

Upload Photos

1,809,187 photos uploaded!

WunderBlogs® & News

Nearby

Air Quality

  Air Quality AQ Index Pollutant
Not available.

Snow Depth

Station Depth Elevation

Earthquake Activity

City Distance Mag. Time & Date
Minimum magnitude displayed is 2.5.

Coastal Water Temperatures

Place Temperature

Stations

Nearby Weather Stations

Station Location Temp. Windchill Dew Point Humidity Wind Precip. Elev Updated Type